createdAt,value
2023-05-04T00:02:23.980Z,12.50
2023-05-04T00:04:53.554Z,13.83
2023-05-04T00:07:21.977Z,11.70
2023-05-04T00:09:50.912Z,15.03
2023-05-04T00:12:20.667Z,15.00
2023-05-04T00:14:48.839Z,12.57
2023-05-04T00:17:17.212Z,15.13
2023-05-04T00:19:46.201Z,13.13
2023-05-04T00:22:14.499Z,14.23
2023-05-04T00:24:44.118Z,16.30
2023-05-04T00:27:12.451Z,18.07
2023-05-04T00:29:42.099Z,14.23
2023-05-04T00:32:10.951Z,16.20
2023-05-04T00:34:39.347Z,15.87
2023-05-04T00:37:08.097Z,15.20
2023-05-04T00:39:36.462Z,15.37
2023-05-04T00:42:04.929Z,12.10
2023-05-04T00:44:34.728Z,12.63
2023-05-04T00:47:05.472Z,16.23
2023-05-04T00:49:34.002Z,13.20
2023-05-04T00:52:03.434Z,13.70
2023-05-04T00:54:31.862Z,14.43
2023-05-04T00:57:00.324Z,11.97
2023-05-04T00:59:28.663Z,12.40
2023-05-04T01:01:57.188Z,15.63
2023-05-04T01:04:26.977Z,13.43
2023-05-04T01:07:01.102Z,15.33
2023-05-04T01:09:34.201Z,12.03
2023-05-04T01:12:06.518Z,14.90
2023-05-04T01:14:36.061Z,14.53
2023-05-04T01:17:05.623Z,16.30
2023-05-04T01:19:35.858Z,14.90
2023-05-04T01:22:07.206Z,13.33
2023-05-04T01:24:35.705Z,14.70
2023-05-04T01:27:06.476Z,13.43
2023-05-04T01:29:40.548Z,16.50
2023-05-04T01:32:09.440Z,15.30
2023-05-04T01:34:38.243Z,14.17
2023-05-04T01:37:08.242Z,15.07
2023-05-04T01:39:38.063Z,12.00
2023-05-04T01:42:07.384Z,14.10
2023-05-04T01:44:35.790Z,15.60
2023-05-04T01:47:04.077Z,13.80
2023-05-04T01:49:33.276Z,12.50
2023-05-04T01:52:01.470Z,12.67
2023-05-04T01:54:31.175Z,12.33
2023-05-04T01:56:59.406Z,13.80
2023-05-04T01:59:30.398Z,13.70
2023-05-04T02:01:58.789Z,12.77
2023-05-04T02:04:28.191Z,15.47
2023-05-04T02:06:56.499Z,15.80
2023-05-04T02:09:24.856Z,16.03
2023-05-04T02:11:54.494Z,18.00
2023-05-04T02:14:22.739Z,10.23
2023-05-04T02:16:51.071Z,15.73
2023-05-04T02:19:19.371Z,16.10
2023-05-04T02:21:47.647Z,20.33
2023-05-04T02:24:16.219Z,16.03
2023-05-04T02:26:44.468Z,12.20
2023-05-04T02:29:14.219Z,14.00
2023-05-04T02:31:42.664Z,12.27
2023-05-04T02:34:10.990Z,13.90
2023-05-04T02:36:48.252Z,13.37
2023-05-04T02:39:17.546Z,16.47
2023-05-04T02:41:45.769Z,14.27
2023-05-04T02:44:15.480Z,11.10
2023-05-04T02:46:43.795Z,12.23
2023-05-04T02:49:12.118Z,11.47
2023-05-04T02:51:40.400Z,13.37
2023-05-04T02:54:08.789Z,10.20
2023-05-04T02:56:37.110Z,11.93
2023-05-04T02:59:05.419Z,13.40
2023-05-04T03:01:35.242Z,13.93
2023-05-04T03:04:03.572Z,13.10
2023-05-04T03:06:31.893Z,14.07
2023-05-04T03:09:00.501Z,14.20
2023-05-04T03:11:28.809Z,12.27
2023-05-04T03:13:57.126Z,14.60
2023-05-04T03:16:25.513Z,12.90
2023-05-04T03:18:55.449Z,13.83
2023-05-04T03:21:24.169Z,15.53
2023-05-04T03:23:52.592Z,15.00
2023-05-04T03:26:21.303Z,14.47
2023-05-04T03:28:50.186Z,13.77
2023-05-04T03:31:18.501Z,15.13
2023-05-04T03:33:50.452Z,10.83
2023-05-04T03:36:20.692Z,11.10
2023-05-04T03:38:48.996Z,12.17
2023-05-04T03:41:17.690Z,12.60
2023-05-04T03:43:46.022Z,16.90
2023-05-04T03:46:14.394Z,12.80
2023-05-04T03:48:43.234Z,13.03
2023-05-04T03:51:15.606Z,12.13
2023-05-04T03:53:45.251Z,9.30
2023-05-04T03:56:16.704Z,10.03
2023-05-04T03:58:45.065Z,8.70
2023-05-04T04:01:15.616Z,10.70
2023-05-04T04:03:44.036Z,11.40
2023-05-04T04:06:13.519Z,12.57
2023-05-04T04:08:42.097Z,14.40
2023-05-04T04:11:11.740Z,12.00
2023-05-04T04:13:39.976Z,11.63
2023-05-04T04:16:08.590Z,11.47
2023-05-04T04:18:36.893Z,12.83
2023-05-04T04:21:05.420Z,14.67
2023-05-04T04:23:33.633Z,12.00
2023-05-04T04:26:01.838Z,13.00
2023-05-04T04:28:31.617Z,11.83
2023-05-04T04:31:00.143Z,12.40
2023-05-04T04:33:28.431Z,9.70
2023-05-04T04:35:56.777Z,13.70
2023-05-04T04:38:25.167Z,12.83
2023-05-04T04:40:53.420Z,15.03
2023-05-04T04:43:21.765Z,9.20
2023-05-04T04:45:51.460Z,11.40
2023-05-04T04:48:21.997Z,9.40
2023-05-04T04:50:50.319Z,11.37
2023-05-04T04:53:18.604Z,12.90
2023-05-04T04:55:47.030Z,11.50
2023-05-04T04:58:15.252Z,13.73
2023-05-04T05:00:45.566Z,9.53
2023-05-04T05:03:15.532Z,5.13
2023-05-04T05:05:43.772Z,9.03
2023-05-04T05:08:12.092Z,15.30
2023-05-04T05:10:43.187Z,6.13
2023-05-04T05:13:12.297Z,7.47
2023-05-04T05:15:40.714Z,5.20
2023-05-04T05:18:09.064Z,6.37
2023-05-04T05:20:39.120Z,6.77
2023-05-04T05:23:07.620Z,6.93
2023-05-04T05:25:35.932Z,3.23
2023-05-04T05:28:04.305Z,10.60
2023-05-04T05:30:32.768Z,7.00
2023-05-04T05:33:00.976Z,9.30
2023-05-04T05:35:29.251Z,6.90
2023-05-04T05:37:59.208Z,7.80
2023-05-04T05:40:27.477Z,7.90
2023-05-04T05:42:56.024Z,8.00
2023-05-04T05:45:24.551Z,6.43
2023-05-04T05:47:53.071Z,6.90
2023-05-04T05:50:21.691Z,7.10
2023-05-04T05:52:50.031Z,8.67
2023-05-04T05:55:19.903Z,6.70
2023-05-04T05:57:48.130Z,8.40
2023-05-04T06:00:17.869Z,5.83
2023-05-04T06:02:46.438Z,6.43
2023-05-04T06:05:14.986Z,6.67
2023-05-04T06:07:43.427Z,9.00
2023-05-04T06:10:13.298Z,6.73
2023-05-04T06:12:44.563Z,6.30
2023-05-04T06:15:14.612Z,6.83
2023-05-04T06:17:43.140Z,8.50
2023-05-04T06:20:12.054Z,7.10
2023-05-04T06:22:42.334Z,7.60
2023-05-04T06:25:11.774Z,6.57
2023-05-04T06:27:40.227Z,6.40
2023-05-04T06:30:11.163Z,5.10
2023-05-04T06:32:39.858Z,7.50
2023-05-04T06:35:09.187Z,8.33
2023-05-04T06:37:38.110Z,5.73
2023-05-04T06:40:08.338Z,6.80
2023-05-04T06:42:37.283Z,5.87
2023-05-04T06:45:07.273Z,5.63
2023-05-04T06:47:39.256Z,7.03
2023-05-04T06:50:11.999Z,8.20
2023-05-04T06:52:41.371Z,6.17
2023-05-04T06:55:09.813Z,6.90
2023-05-04T06:57:38.184Z,5.93
2023-05-04T07:00:08.473Z,5.37
2023-05-04T07:02:38.268Z,4.87
2023-05-04T07:05:07.165Z,6.20
2023-05-04T07:07:35.470Z,6.03
2023-05-04T07:10:03.962Z,7.13
2023-05-04T07:12:32.490Z,4.40
2023-05-04T07:15:01.022Z,6.10
2023-05-04T07:17:29.610Z,4.90
2023-05-04T07:19:59.333Z,6.33
2023-05-04T07:22:27.688Z,7.23
2023-05-04T07:24:56.851Z,4.67
2023-05-04T07:27:25.240Z,6.87
2023-05-04T07:29:53.819Z,6.13
2023-05-04T07:32:22.391Z,6.53
2023-05-04T07:34:50.806Z,7.40
2023-05-04T07:37:20.670Z,6.27
2023-05-04T07:39:51.804Z,6.83
2023-05-04T07:42:20.195Z,5.87
2023-05-04T07:44:48.487Z,5.83
2023-05-04T07:47:16.859Z,6.40
2023-05-04T07:49:45.352Z,6.80
2023-05-04T07:52:13.681Z,7.93
2023-05-04T07:54:43.396Z,8.37
2023-05-04T07:57:11.778Z,7.53
2023-05-04T07:59:40.050Z,6.33
2023-05-04T08:02:08.650Z,5.50
2023-05-04T08:04:37.117Z,5.77
2023-05-04T08:07:05.673Z,10.43
2023-05-04T08:09:33.916Z,7.33
2023-05-04T08:12:04.530Z,6.50
2023-05-04T08:14:34.131Z,5.60
2023-05-04T08:17:04.166Z,5.43
2023-05-04T08:19:32.469Z,5.40
2023-05-04T08:22:00.809Z,6.93
2023-05-04T08:24:29.533Z,5.40
2023-05-04T08:27:07.233Z,5.30
2023-05-04T08:29:38.092Z,7.80
2023-05-04T08:32:06.956Z,4.63
2023-05-04T08:34:35.889Z,4.80
2023-05-04T08:37:04.486Z,6.50
2023-05-04T08:39:32.975Z,5.20
2023-05-04T08:42:02.325Z,5.37
2023-05-04T08:44:30.702Z,6.50
2023-05-04T08:47:00.360Z,5.27
2023-05-04T08:49:29.235Z,5.00
2023-05-04T08:51:58.652Z,5.50
2023-05-04T08:54:28.700Z,6.50
2023-05-04T08:56:57.365Z,4.77
2023-05-04T08:59:26.391Z,5.97
2023-05-04T09:01:58.612Z,4.20
2023-05-04T09:04:29.741Z,5.10
2023-05-04T09:06:58.850Z,6.70
2023-05-04T09:09:29.471Z,7.53
2023-05-04T09:11:59.159Z,5.67
2023-05-04T09:14:34.144Z,4.50
2023-05-04T09:17:02.541Z,5.40
2023-05-04T09:19:34.872Z,5.83
2023-05-04T09:22:03.630Z,5.93
2023-05-04T09:24:32.240Z,4.87
2023-05-04T09:27:10.953Z,4.43
2023-05-04T09:29:40.699Z,4.73
2023-05-04T09:32:15.315Z,4.20
2023-05-04T09:34:52.738Z,4.87
2023-05-04T09:37:22.275Z,5.80
2023-05-04T09:39:52.440Z,9.03
2023-05-04T09:42:21.566Z,5.63
2023-05-04T09:45:00.432Z,4.40
2023-05-04T09:47:35.949Z,4.50
2023-05-04T09:50:19.897Z,4.93
2023-05-04T09:52:50.324Z,3.47
2023-05-04T09:55:19.952Z,6.17
2023-05-04T09:57:49.333Z,4.37
2023-05-04T10:00:18.789Z,3.93
2023-05-04T10:02:48.182Z,3.50
2023-05-04T10:05:21.323Z,5.30
2023-05-04T10:07:49.611Z,3.73
2023-05-04T10:10:17.884Z,4.33
2023-05-04T10:12:46.478Z,4.20
2023-05-04T10:15:16.161Z,5.13
2023-05-04T10:18:04.413Z,5.37
2023-05-04T10:21:02.336Z,4.07
2023-05-04T10:23:49.965Z,4.27
2023-05-04T10:26:53.722Z,3.60
2023-05-04T10:29:23.976Z,3.80
2023-05-04T10:31:53.579Z,3.93
2023-05-04T10:34:26.456Z,4.23
2023-05-04T10:36:56.601Z,4.63
2023-05-04T10:39:26.006Z,4.20
2023-05-04T10:41:59.226Z,4.93
2023-05-04T10:44:28.783Z,4.80
2023-05-04T10:47:02.044Z,3.40
2023-05-04T10:49:31.230Z,4.80
2023-05-04T10:52:09.200Z,4.17
2023-05-04T10:54:40.006Z,4.57
2023-05-04T10:57:10.291Z,4.33
2023-05-04T10:59:40.226Z,3.90
2023-05-04T11:02:09.385Z,4.03
2023-05-04T11:04:39.170Z,3.40
2023-05-04T11:07:09.116Z,4.23
2023-05-04T11:09:39.613Z,7.30
2023-05-04T11:12:10.931Z,3.20
2023-05-04T11:14:43.722Z,2.67
2023-05-04T11:17:28.089Z,3.00
2023-05-04T11:20:01.089Z,3.60
2023-05-04T11:22:38.894Z,2.87
2023-05-04T11:25:10.417Z,4.60
2023-05-04T11:27:39.912Z,6.27
2023-05-04T11:30:11.834Z,3.10
2023-05-04T11:32:50.690Z,4.90
2023-05-04T11:35:25.084Z,3.23
2023-05-04T11:38:22.153Z,2.77
2023-05-04T11:40:52.117Z,2.53
2023-05-04T11:43:24.280Z,2.17
2023-05-04T11:46:00.189Z,2.10
2023-05-04T11:48:32.575Z,2.53
2023-05-04T11:51:04.508Z,2.30
2023-05-04T11:53:42.751Z,4.10
2023-05-04T11:56:13.872Z,3.60
2023-05-04T11:58:42.659Z,2.37
2023-05-04T12:01:13.179Z,4.17
2023-05-04T12:03:52.167Z,2.90
2023-05-04T12:06:34.543Z,2.10
2023-05-04T12:09:07.372Z,2.10
2023-05-04T12:11:38.616Z,2.93
2023-05-04T12:14:11.207Z,2.37
2023-05-04T12:16:56.867Z,2.40
2023-05-04T12:19:27.136Z,6.07
2023-05-04T12:21:58.523Z,2.57
2023-05-04T12:24:29.508Z,2.27
2023-05-04T12:26:58.249Z,2.50
2023-05-04T12:29:27.459Z,2.17
2023-05-04T12:31:56.505Z,2.50
2023-05-04T12:34:27.995Z,2.80
2023-05-04T12:36:56.748Z,2.10
2023-05-04T12:39:25.764Z,3.00
2023-05-04T12:41:56.282Z,2.23
2023-05-04T12:44:27.857Z,2.10
2023-05-04T12:46:56.917Z,3.80
2023-05-04T12:49:25.821Z,2.77
2023-05-04T12:51:56.835Z,2.33
2023-05-04T12:54:30.572Z,2.30
2023-05-04T12:57:00.977Z,2.53
2023-05-04T12:59:29.878Z,2.60
2023-05-04T13:02:00.587Z,3.50
2023-05-04T13:04:28.968Z,2.60
2023-05-04T13:06:57.799Z,4.40
2023-05-04T13:09:26.660Z,2.90
2023-05-04T13:11:57.620Z,3.67
2023-05-04T13:14:29.055Z,2.60
2023-05-04T13:16:57.722Z,2.47
2023-05-04T13:19:28.895Z,2.83
2023-05-04T13:21:59.103Z,3.20
2023-05-04T13:24:27.587Z,2.57
2023-05-04T13:26:56.312Z,2.20
2023-05-04T13:29:25.052Z,2.50
2023-05-04T13:31:55.479Z,2.33
2023-05-04T13:34:26.669Z,2.77
2023-05-04T13:36:55.350Z,2.40
2023-05-04T13:39:25.003Z,3.63
2023-05-04T13:41:54.237Z,2.77
2023-05-04T13:44:22.868Z,3.10
2023-05-04T13:46:51.638Z,2.73
2023-05-04T13:49:22.743Z,2.10
2023-05-04T13:51:52.801Z,2.30
2023-05-04T13:54:21.218Z,4.83
2023-05-04T13:56:52.321Z,2.97
2023-05-04T13:59:21.638Z,2.00
2023-05-04T14:01:50.079Z,5.63
2023-05-04T14:04:18.490Z,2.33
2023-05-04T14:06:52.917Z,1.87
2023-05-04T14:09:22.068Z,2.20
2023-05-04T14:11:51.061Z,2.20
2023-05-04T14:14:19.781Z,3.00
2023-05-04T14:16:48.911Z,2.27
2023-05-04T14:19:18.770Z,2.23
2023-05-04T14:21:47.899Z,3.17
2023-05-04T14:24:17.806Z,3.30
2023-05-04T14:26:46.650Z,2.90
2023-05-04T14:29:15.448Z,2.20
2023-05-04T14:31:44.951Z,2.10
2023-05-04T14:34:13.653Z,1.70
2023-05-04T14:36:42.040Z,2.17
2023-05-04T14:39:10.450Z,2.57
2023-05-04T14:41:41.480Z,2.47
2023-05-04T14:44:10.107Z,2.27
2023-05-04T14:46:38.486Z,2.60
2023-05-04T14:49:07.518Z,2.50
2023-05-04T14:51:35.812Z,2.10
2023-05-04T14:54:04.405Z,1.90
2023-05-04T14:56:32.757Z,2.30
2023-05-04T14:59:02.866Z,2.73
2023-05-04T15:01:31.432Z,2.97
2023-05-04T15:03:59.795Z,2.63
2023-05-04T15:06:32.741Z,2.33
2023-05-04T15:09:01.136Z,3.87
2023-05-04T15:11:29.639Z,2.97
2023-05-04T15:13:59.242Z,2.27
2023-05-04T15:16:32.429Z,4.70
2023-05-04T15:19:00.828Z,3.00
2023-05-04T15:21:30.028Z,3.50
2023-05-04T15:23:58.577Z,1.80
2023-05-04T15:26:27.594Z,2.33
2023-05-04T15:28:56.144Z,3.70
2023-05-04T15:31:25.983Z,2.10
2023-05-04T15:33:56.014Z,3.03
2023-05-04T15:36:24.878Z,2.83
2023-05-04T15:38:53.180Z,2.67
2023-05-04T15:41:21.744Z,2.13
2023-05-04T15:43:50.188Z,2.17
2023-05-04T15:46:18.610Z,3.20
2023-05-04T15:48:46.952Z,4.67
2023-05-04T15:51:16.669Z,1.87
2023-05-04T15:53:45.094Z,2.07
2023-05-04T15:56:14.011Z,2.50
2023-05-04T15:58:44.761Z,3.77
2023-05-04T16:01:15.029Z,2.00
2023-05-04T16:03:44.284Z,2.00
2023-05-04T16:06:12.937Z,2.10
2023-05-04T16:08:45.222Z,3.97
2023-05-04T16:11:13.588Z,2.47
2023-05-04T16:13:41.895Z,2.13
2023-05-04T16:16:12.945Z,1.70
2023-05-04T16:18:41.350Z,2.33
2023-05-04T16:21:10.275Z,2.40
2023-05-04T16:23:38.801Z,2.23
2023-05-04T16:26:08.596Z,2.60
2023-05-04T16:28:37.046Z,2.30
2023-05-04T16:31:06.227Z,5.40
2023-05-04T16:33:34.870Z,2.10
2023-05-04T16:36:06.636Z,2.33
2023-05-04T16:38:35.120Z,4.43
2023-05-04T16:41:04.112Z,2.17
2023-05-04T16:43:34.123Z,2.80
2023-05-04T16:46:02.712Z,2.60
2023-05-04T16:48:31.264Z,2.50
2023-05-04T16:50:59.917Z,2.20
2023-05-04T16:53:28.190Z,2.87
2023-05-04T16:55:56.994Z,4.73
2023-05-04T16:58:25.331Z,2.97
2023-05-04T17:00:55.524Z,2.90
2023-05-04T17:03:23.992Z,2.23
2023-05-04T17:05:52.743Z,3.63
2023-05-04T17:08:21.112Z,2.20
2023-05-04T17:10:49.406Z,2.87
2023-05-04T17:13:18.160Z,3.40
2023-05-04T17:15:46.664Z,2.30
2023-05-04T17:18:16.436Z,2.50
2023-05-04T17:20:44.680Z,2.47
2023-05-04T17:23:13.007Z,2.93
2023-05-04T17:25:41.661Z,2.73
2023-05-04T17:28:10.005Z,3.00
2023-05-04T17:30:40.846Z,3.77
2023-05-04T17:33:09.225Z,2.70
2023-05-04T17:35:39.101Z,5.00
2023-05-04T17:38:08.096Z,3.67
2023-05-04T17:40:37.632Z,3.07
2023-05-04T17:43:06.027Z,3.00
2023-05-04T17:45:34.711Z,4.03
2023-05-04T17:48:03.109Z,3.30
2023-05-04T17:50:31.523Z,2.43
2023-05-04T17:53:01.245Z,3.80
2023-05-04T17:55:29.817Z,5.90
2023-05-04T17:57:58.251Z,4.73
2023-05-04T18:00:26.859Z,3.60
2023-05-04T18:02:55.570Z,5.27
2023-05-04T18:05:25.218Z,9.00
2023-05-04T18:07:53.703Z,4.33
2023-05-04T18:10:24.659Z,3.77
2023-05-04T18:12:53.144Z,2.73
2023-05-04T18:15:21.495Z,4.03
2023-05-04T18:17:50.880Z,3.57
2023-05-04T18:20:19.637Z,4.33
2023-05-04T18:22:48.291Z,3.23
2023-05-04T18:25:16.709Z,6.23
2023-05-04T18:27:46.566Z,4.43
2023-05-04T18:30:15.297Z,3.23
2023-05-04T18:32:43.976Z,3.30
2023-05-04T18:35:12.343Z,3.83
2023-05-04T18:37:40.757Z,3.80
2023-05-04T18:40:10.624Z,4.33
2023-05-04T18:42:40.053Z,6.67
2023-05-04T18:45:12.270Z,3.70
2023-05-04T18:47:41.626Z,2.73
2023-05-04T18:50:11.730Z,4.80
2023-05-04T18:52:40.916Z,3.70
2023-05-04T18:55:16.147Z,3.67
2023-05-04T18:57:45.192Z,3.83
2023-05-04T19:00:16.974Z,4.23
2023-05-04T19:02:46.850Z,8.80
2023-05-04T19:05:15.701Z,4.40
2023-05-04T19:07:45.523Z,5.27
2023-05-04T19:10:14.483Z,4.43
2023-05-04T19:12:43.026Z,5.60
2023-05-04T19:15:11.490Z,6.97
2023-05-04T19:17:41.296Z,4.90
2023-05-04T19:20:10.500Z,3.43
2023-05-04T19:22:38.847Z,4.70
2023-05-04T19:25:08.135Z,9.80
2023-05-04T19:27:37.287Z,4.13
2023-05-04T19:30:06.833Z,5.13
2023-05-04T19:32:35.324Z,4.40
2023-05-04T19:35:05.364Z,6.10
2023-05-04T19:37:34.159Z,4.73
2023-05-04T19:40:02.511Z,4.60
2023-05-04T19:42:31.054Z,5.20
2023-05-04T19:44:59.762Z,4.50
2023-05-04T19:47:30.025Z,5.50
2023-05-04T19:49:58.529Z,4.83
2023-05-04T19:52:28.615Z,5.50
2023-05-04T19:54:57.174Z,12.73
2023-05-04T19:57:25.771Z,4.47
2023-05-04T19:59:55.810Z,4.50
2023-05-04T20:02:24.501Z,7.00
2023-05-04T20:04:52.933Z,3.80
2023-05-04T20:07:21.454Z,5.70
2023-05-04T20:09:51.609Z,5.27
2023-05-04T20:12:20.182Z,6.40
2023-05-04T20:14:48.509Z,10.83
2023-05-04T20:17:16.918Z,5.97
2023-05-04T20:19:46.278Z,5.43
2023-05-04T20:22:14.704Z,5.20
2023-05-04T20:24:43.099Z,4.97
2023-05-04T20:27:13.219Z,4.60
2023-05-04T20:29:41.489Z,5.37
2023-05-04T20:32:10.950Z,7.33
2023-05-04T20:34:39.809Z,4.33
2023-05-04T20:37:08.348Z,5.73
2023-05-04T20:39:36.898Z,4.97
2023-05-04T20:42:06.841Z,6.40
2023-05-04T20:44:38.956Z,10.33
2023-05-04T20:47:07.442Z,6.43
2023-05-04T20:49:36.798Z,5.20
2023-05-04T20:52:06.335Z,7.37
2023-05-04T20:54:35.302Z,10.53
2023-05-04T20:57:03.702Z,5.53
2023-05-04T20:59:32.074Z,8.10
2023-05-04T21:02:01.948Z,5.00
2023-05-04T21:04:30.370Z,5.73
2023-05-04T21:06:58.910Z,5.97
2023-05-04T21:09:28.369Z,5.93
2023-05-04T21:11:56.777Z,6.57
2023-05-04T21:14:27.755Z,7.70
2023-05-04T21:16:56.326Z,5.20
2023-05-04T21:19:26.097Z,6.57
2023-05-04T21:21:54.667Z,5.00
2023-05-04T21:24:25.876Z,10.23
2023-05-04T21:26:54.218Z,6.10
2023-05-04T21:29:22.501Z,4.70
2023-05-04T21:31:50.945Z,7.17
2023-05-04T21:34:20.899Z,6.40
2023-05-04T21:36:50.593Z,5.63
2023-05-04T21:39:19.333Z,5.43
2023-05-04T21:41:49.759Z,6.67
2023-05-04T21:44:20.162Z,8.07
2023-05-04T21:46:48.654Z,5.03
2023-05-04T21:49:17.136Z,6.20
2023-05-04T21:51:45.642Z,6.40
2023-05-04T21:54:16.277Z,5.90
2023-05-04T21:56:44.690Z,4.47
2023-05-04T21:59:14.141Z,7.00
2023-05-04T22:01:43.839Z,4.70
2023-05-04T22:04:12.491Z,6.90
2023-05-04T22:06:41.150Z,6.47
2023-05-04T22:09:09.792Z,4.80
2023-05-04T22:11:39.596Z,5.27
2023-05-04T22:14:08.142Z,6.13
2023-05-04T22:16:36.682Z,4.67
2023-05-04T22:19:05.332Z,4.33
2023-05-04T22:21:33.732Z,4.63
2023-05-04T22:24:02.294Z,3.93
2023-05-04T22:26:30.810Z,5.00
2023-05-04T22:29:02.913Z,5.13
2023-05-04T22:31:31.335Z,4.43
2023-05-04T22:33:59.909Z,4.43
2023-05-04T22:36:28.276Z,6.63
2023-05-04T22:38:56.709Z,4.20
2023-05-04T22:41:25.852Z,4.83
2023-05-04T22:43:54.425Z,2.80
2023-05-04T22:46:25.675Z,4.40
2023-05-04T22:48:54.273Z,4.50
2023-05-04T22:51:22.606Z,3.20
2023-05-04T22:53:52.196Z,4.67
2023-05-04T22:56:21.069Z,3.30
2023-05-04T22:58:49.758Z,3.93
2023-05-04T23:01:18.244Z,4.57
2023-05-04T23:03:48.966Z,5.63
2023-05-04T23:06:17.487Z,5.07
2023-05-04T23:08:46.300Z,5.23
2023-05-04T23:11:14.784Z,5.63
2023-05-04T23:13:43.401Z,4.23
2023-05-04T23:16:12.044Z,3.77
2023-05-04T23:18:40.558Z,4.70
2023-05-04T23:21:10.370Z,5.37
2023-05-04T23:23:38.744Z,4.80
2023-05-04T23:26:07.182Z,3.67
2023-05-04T23:28:35.677Z,6.80
2023-05-04T23:31:04.088Z,4.83
2023-05-04T23:33:32.540Z,4.63
2023-05-04T23:36:01.004Z,5.33
2023-05-04T23:38:30.782Z,5.33
2023-05-04T23:40:59.204Z,5.37
2023-05-04T23:43:27.641Z,6.57
2023-05-04T23:46:01.019Z,5.20
2023-05-04T23:48:29.613Z,3.90
2023-05-04T23:50:59.073Z,8.67
2023-05-04T23:53:27.500Z,7.37
2023-05-04T23:56:03.519Z,4.93
2023-05-04T23:58:32.973Z,5.80
